• Join FlightAware (Why Join?)
  • Login
  • US Flag 
Gobble Gobble! 
07:33PM EST


 

Airport Tracker/Info


-or-


 

Live Flight TrackerFlight Track Log ✈ UCA4838 ✈ 29-Apr-2013 ✈ KITH - KEWR

Flight Track Log - Related Links

Times and Time Zones

All times are in EDT time to prevent confusion due to time zone crossing. See the UCA4838 flight status page for this flight to view local times or setup timezone preferences in your user account.

Time Position Orientation Groundspeed Altitude Reporting Facility
EDT Latitude Longitude Course Direction KTS MPH feet Rate Location/Type
05:32PM 42.4436 -76.3592 103° East 177 204 5,100  Level New York Center
05:33PM 42.4192 -76.3011 120° Southeast 154 177 6,700 1,320 Climbing New York Center
05:33PM 42.4050 -76.2561 113° Southeast 159 183 7,400 1,440 Climbing Boston Center
05:34PM 42.3800 -76.1900 117° Southeast 187 215 9,200 1,620 Climbing Boston Center
05:35PM 42.3536 -76.1125 115° Southeast 202 232 10,700 1,440 Climbing Boston Center
05:36PM 42.3303 -76.0519 118° Southeast 200 230 12,100 1,380 Climbing Boston Center
05:37PM 42.3470 -76.0984 103° East  Level FlightAware Approximate
05:37PM 42.3056 -75.9775 114° Southeast 206 237 13,500  Level Boston Center
05:38PM 42.2914 -75.8983 104° East 211 243 14,900 660 Climbing Boston Center
05:39PM 42.2667 -75.8156 112° Southeast 219 252 14,900  Level Boston Center
05:40PM 42.2319 -75.7267 118° Southeast 245 282 14,900  Level Boston Center
05:41PM 42.1969 -75.6406 119° Southeast 258 297 14,900  Level Boston Center
05:42PM 42.1597 -75.5492 119° Southeast 270 311 14,900  Level Boston Center
05:43PM 42.1225 -75.4606 120° Southeast 270 311 15,000  Climbing Boston Center
05:44PM 42.0875 -75.3692 117° Southeast 275 316 15,000  Level Boston Center
05:45PM 42.0539 -75.2894 120° Southeast 275 316 15,000  Level Boston Center
05:46PM 42.0189 -75.1956 117° Southeast 275 316 15,000  Level Boston Center
05:47PM 41.9856 -75.1103 118° Southeast 255 293 15,000  Level Boston Center
05:48PM 41.9600 -75.0367 115° Southeast 218 251 15,000  Level Boston Center
05:49PM 41.9303 -74.9711 121° Southeast 212 244 15,000 -660 Level Boston Center
05:50PM 41.8875 -74.9194 138° Southeast 199 229 13,700 -1,260 Descending Boston Center
05:51PM 41.8472 -74.8619 133° Southeast 205 236 12,500 -1,260 Descending Boston Center
05:52PM 41.8067 -74.8075 135° Southeast 210 242 11,200 -1,440 Descending Boston Center
05:53PM 41.7594 -74.7750 153° Southeast 197 227 9,700 -1,680 Descending Boston Center
05:54PM 41.7058 -74.7481 159° South 197 227 7,900 -1,380 Descending Boston Center
05:55PM 41.6583 -74.7242 159° South 197 227 7,000 -480 Descending Boston Center
05:56PM 41.6108 -74.6975 157° South 183 211 7,000 -540 Level Boston Center
05:57PM 41.5489 -74.6647 158° South 216 249 6,000 -540 Descending Boston Center
05:58PM 41.5058 -74.6411 158° South 234 269 6,000  Level Boston Center
05:59PM 41.4294 -74.6025 159° South 234 269 6,000  Level Boston Center
06:01PM 41.3333 -74.6167 186° South 226 260 6,000 -60 Level New York TRACON
06:02PM 41.2667 -74.6500 201° Southwest 225 259 5,900 -480 Descending New York TRACON
06:03PM 41.2000 -74.6000 151° Southeast 232 267 5,000 -480 Descending New York TRACON
06:04PM 41.1667 -74.5500 132° Southeast 235 270 5,000  Level New York TRACON
06:05PM 41.1000 -74.5333 169° South 231 266 5,000  Level New York TRACON
06:06PM 41.0667 -74.4667 124° Southeast 231 266 5,000  Level New York TRACON
06:07PM 41.0333 -74.3833 118° Southeast 218 251 5,000  Level New York TRACON
06:08PM 41.0333 -74.3000 90° East 221 254 5,100  Climbing New York TRACON
06:09PM 41.0000 -74.2500 131° Southeast 198 228 5,000 -360 Descending New York TRACON
06:10PM 40.9667 -74.1833 123° Southeast 196 226 4,500 -540 Descending New York TRACON
06:11PM 40.9333 -74.1500 143° Southeast 183 211 4,000 -360 Descending New York TRACON
06:12PM 40.8833 -74.1000 143° Southeast 182 209 3,800 -720 Descending New York TRACON
06:13PM 40.8500 -74.0833 159° South 178 205 2,600 -780 Descending New York TRACON
06:14PM 40.8000 -74.1000 194° South 170 196 2,300 -600 Descending New York TRACON
06:15PM 40.7667 -74.1167 201° Southwest 174 200 1,500 -900 Descending New York TRACON
06:16PM 40.7167 -74.1500 207° Southwest 139 160 700 -840 Descending New York TRACON
06:18PM 40.6925 -74.1687 180° South  Level Estimated
06:25PM 40.6925 -74.1687 180° South  Level Estimated
06:26PM 40.6925 -74.1687 180° South  Level Estimated